Time;durP1;ratioP1;P1;durP2;ratioP2;P2;SDS_P1;SDS_P2;PMS_P1;PMS_P2;Temp;Humidity;BMP_temperature;BMP_pressure;BME280_temperature;BME280_humidity;BME280_pressure;Samples;Min_cycle;Max_cycle;Signal;HPM_P1;HPM_P2
2021/09/05 00:00:41;;;;;;;;;;;;;;;;;;2106071;28;44592;-68
2021/09/05 00:01:44;;;;;;;;;;;;;;;;;;2105469;28;45356;-68
2021/09/05 00:02:46;;;;;;;;;;;;;;;;;;2105561;28;46608;-68
2021/09/05 00:03:47;;;;;;;;;;;;;;;;;;2097379;28;46968;-68
2021/09/05 00:04:49;;;;;;;;;;;;;;;;;;2097211;28;46022;-69
2021/09/05 00:05:50;;;;;;;;;;;;;;;;;;2097366;28;46075;-69
2021/09/05 00:06:52;;;;;;;;;;;;;;;;;;2096864;28;47261;-68
2021/09/05 00:07:53;;;;;;;;;;;;;;;;;;2097190;28;46836;-68
2021/09/05 00:08:55;;;;;;;;;;;;;;;;;;2105708;28;44146;-69
2021/09/05 00:09:56;;;;;;;;;;;;;;;;;;2105680;28;44611;-69
2021/09/05 00:10:58;;;;;;;;;;;;;;;;;;2105541;28;45801;-68
2021/09/05 00:11:59;;;;;;;;;;;;;;;;;;2105560;28;47208;-68
2021/09/05 00:13:01;;;;;;;;;;;;;;;;;;2105526;28;45873;-69
2021/09/05 00:14:02;;;;;;;;;;;;;;;;;;2105731;28;43430;-69
2021/09/05 00:15:05;;;;;;;;;;;;;;;;;;2113370;27;45694;-68
2021/09/05 00:16:06;;;;;;;;;;;;;;;;;;2105700;28;46772;-68
2021/09/05 00:17:08;;;;;;;;;;;;;;;;;;2105712;28;45920;-68
2021/09/05 00:18:09;;;;;;;;;;;;;;;;;;2105267;28;43249;-69
2021/09/05 00:19:11;;;;;;;;;;;;;;;;;;2105660;28;46016;-68
2021/09/05 00:20:12;;;;;;;;;;;;;;;;;;2104733;28;44614;-68
2021/09/05 00:21:14;;;;;;;;;;;;;;;;;;2104808;28;45922;-69
2021/09/05 00:22:15;;;;;;;;;;;;;;;;;;2106472;28;45733;-68
2021/09/05 00:23:16;;;;;;;;;;;;;;;;;;2105600;28;45196;-68
2021/09/05 00:24:18;;;;;;;;;;;;;;;;;;2105659;28;45265;-68
2021/09/05 00:25:19;;;;;;;;;;;;;;;;;;2105623;28;45480;-69
2021/09/05 00:26:21;;;;;;;;;;;;;;;;;;2104975;28;46350;-69
2021/09/05 00:27:22;;;;;;;;;;;;;;;;;;2113790;28;45243;-69
2021/09/05 00:28:24;;;;;;;;;;;;;;;;;;2113708;28;45285;-69
2021/09/05 00:29:25;;;;;;;;;;;;;;;;;;2113796;28;42856;-69
2021/09/05 00:30:27;;;;;;;;;;;;;;;;;;2106040;28;45459;-69
2021/09/05 00:31:28;;;;;;;;;;;;;;;;;;2105384;28;45232;-69
2021/09/05 00:32:30;;;;;;;;;;;;;;;;;;2105408;28;44314;-69
2021/09/05 00:33:31;;;;;;;;;;;;;;;;;;2105088;28;46373;-69
2021/09/05 00:34:33;;;;;;;;;;;;;;;;;;2105497;28;45297;-69
2021/09/05 00:35:34;;;;;;;;;;;;;;;;;;2106160;28;45356;-69
2021/09/05 00:36:38;;;;;;;;;;;;;;;;;;2105957;28;45645;-69
2021/09/05 00:37:40;;;;;;;;;;;;;;;;;;2105931;28;45192;-68
2021/09/05 00:38:42;;;;;;;;;;;;;;;;;;2105558;28;46468;-68
2021/09/05 00:39:43;;;;;;;;;;;;;;;;;;2105998;28;45089;-68
2021/09/05 00:40:44;;;;;;;;;;;;;;;;;;2105462;28;46337;-69
2021/09/05 00:41:47;;;;;;;;;;;;;;;;;;2104572;28;46298;-69
2021/09/05 00:42:48;;;;;;;;;;;;;;;;;;2105110;28;46523;-69
2021/09/05 00:43:53;;;;;;;;;;;;;;;;;;2114195;28;44728;-68
2021/09/05 00:44:54;;;;;;;;;;;;;;;;;;2105342;28;45391;-67
2021/09/05 00:45:56;;;;;;;;;;;;;;;;;;2105019;28;44128;-67
2021/09/05 00:46:59;;;;;;;;;;;;;;;;;;2105414;28;45419;-67
2021/09/05 00:48:00;;;;;;;;;;;;;;;;;;2105671;28;45350;-68
2021/09/05 00:49:03;;;;;;;;;;;;;;;;;;2105334;28;46534;-69
2021/09/05 00:50:06;;;;;;;;;;;;;;;;;;2106524;28;14821;-69
2021/09/05 00:51:07;;;;;;;;;;;;;;;;;;2096645;28;45282;-69
2021/09/05 00:52:09;;;;;;;;;;;;;;;;;;2097083;28;47004;-68
2021/09/05 00:53:10;;;;;;;;;;;;;;;;;;2097255;28;46624;-68
2021/09/05 00:54:14;;;;;;;;;;;;;;;;;;2097322;28;46478;-68
2021/09/05 00:55:15;;;;;;;;;;;;;;;;;;2097689;28;43371;-68
2021/09/05 00:56:17;;;;;;;;;;;;;;;;;;2105507;28;46626;-68
2021/09/05 00:57:19;;;;;;;;;;;;;;;;;;2113605;28;45286;-68
2021/09/05 00:58:20;;;;;;;;;;;;;;;;;;2105171;28;44306;-68
2021/09/05 00:59:22;;;;;;;;;;;;;;;;;;2105187;28;45359;-68
2021/09/05 01:00:25;;;;;;;;;;;;;;;;;;2106078;28;45562;-68
2021/09/05 01:01:27;;;;;;;;;;;;;;;;;;2112864;27;46737;-69
2021/09/05 01:02:28;;;;;;;;;;;;;;;;;;2113694;28;44412;-69
2021/09/05 01:03:30;;;;;;;;;;;;;;;;;;2105160;28;45430;-69
2021/09/05 01:04:32;;;;;;;;;;;;;;;;;;2105621;28;43219;-69
2021/09/05 01:05:34;;;;;;;;;;;;;;;;;;2105653;28;45271;-69
2021/09/05 01:06:37;;;;;;;;;;;;;;;;;;2105438;28;47092;-69
2021/09/05 01:07:39;;;;;;;;;;;;;;;;;;2113174;28;46988;-68
2021/09/05 01:08:41;;;;;;;;;;;;;;;;;;2113940;28;42540;-68
2021/09/05 01:09:42;;;;;;;;;;;;;;;;;;2105252;28;45283;-68
2021/09/05 01:10:44;;;;;;;;;;;;;;;;;;2097136;28;46084;-69
2021/09/05 01:11:45;;;;;;;;;;;;;;;;;;2104937;28;47203;-68
2021/09/05 01:12:46;;;;;;;;;;;;;;;;;;2113720;28;45899;-69
2021/09/05 01:13:48;;;;;;;;;;;;;;;;;;2113527;28;45829;-68
2021/09/05 01:14:49;;;;;;;;;;;;;;;;;;2104954;28;43729;-68
2021/09/05 01:15:51;;;;;;;;;;;;;;;;;;2104946;28;47326;-69
2021/09/05 01:16:53;;;;;;;;;;;;;;;;;;2105416;28;46918;-69
2021/09/05 01:17:54;;;;;;;;;;;;;;;;;;2105802;28;45350;-68
2021/09/05 01:19:06;;;;;;;;;;;;;;;;;;2105834;28;47000;-68
2021/09/05 01:20:08;;;;;;;;;;;;;;;;;;2105065;28;45889;-69
2021/09/05 01:21:10;;;;;;;;;;;;;;;;;;2105595;28;43432;-68
2021/09/05 01:22:11;;;;;;;;;;;;;;;;;;2105713;28;45767;-68
2021/09/05 01:23:12;;;;;;;;;;;;;;;;;;2105904;28;47045;-68
2021/09/05 01:24:15;;;;;;;;;;;;;;;;;;2105769;28;46968;-68
2021/09/05 01:25:16;;;;;;;;;;;;;;;;;;2105322;28;47108;-68
2021/09/05 01:26:18;;;;;;;;;;;;;;;;;;2105634;28;45747;-68
2021/09/05 01:27:20;;;;;;;;;;;;;;;;;;2104993;28;47329;-68
2021/09/05 01:28:21;;;;;;;;;;;;;;;;;;2105234;28;47182;-68
2021/09/05 01:29:23;;;;;;;;;;;;;;;;;;2105332;28;46352;-69
2021/09/05 01:30:24;;;;;;;;;;;;;;;;;;2113525;28;42564;-69
2021/09/05 01:31:34;;;;;;;;;;;;;;;;;;2114277;27;45277;-68
2021/09/05 01:32:36;;;;;;;;;;;;;;;;;;2113552;28;46434;-68
2021/09/05 01:33:37;;;;;;;;;;;;;;;;;;2107763;28;43698;-69
2021/09/05 01:34:39;;;;;;;;;;;;;;;;;;2115124;28;45138;-69
2021/09/05 01:35:40;;;;;;;;;;;;;;;;;;2106599;28;46574;-69
2021/09/05 01:36:42;;;;;;;;;;;;;;;;;;2106437;28;45341;-69
2021/09/05 01:37:43;;;;;;;;;;;;;;;;;;2106500;28;45523;-69
2021/09/05 01:38:45;;;;;;;;;;;;;;;;;;2106566;28;45196;-69
2021/09/05 01:39:46;;;;;;;;;;;;;;;;;;2106669;28;45092;-69
2021/09/05 01:40:48;;;;;;;;;;;;;;;;;;2106580;28;45322;-69
2021/09/05 01:41:50;;;;;;;;;;;;;;;;;;2106088;28;44032;-68
2021/09/05 01:42:51;;;;;;;;;;;;;;;;;;2106639;28;42763;-69
2021/09/05 01:43:58;;;;;;;;;;;;;;;;;;2106593;28;45222;-69
2021/09/05 01:45:00;;;;;;;;;;;;;;;;;;2106411;28;44317;-69
2021/09/05 01:46:01;;;;;;;;;;;;;;;;;;2106617;28;45443;-68
2021/09/05 01:47:03;;;;;;;;;;;;;;;;;;2106424;28;45568;-69
2021/09/05 01:48:05;;;;;;;;;;;;;;;;;;2106374;28;45300;-68
2021/09/05 01:49:07;;;;;;;;;;;;;;;;;;2106376;28;45340;-68
2021/09/05 01:50:08;;;;;;;;;;;;;;;;;;2106895;28;44044;-68
2021/09/05 01:51:10;;;;;;;;;;;;;;;;;;2106696;28;46526;-68
2021/09/05 01:52:11;;;;;;;;;;;;;;;;;;2107526;28;42738;-68
2021/09/05 01:53:12;;;;;;;;;;;;;;;;;;2114519;28;46828;-68
2021/09/05 01:54:14;;;;;;;;;;;;;;;;;;2114955;28;42636;-68
2021/09/05 01:55:15;;;;;;;;;;;;;;;;;;2106834;28;47177;-68
2021/09/05 01:56:17;;;;;;;;;;;;;;;;;;2106582;28;45370;-68
2021/09/05 01:57:18;;;;;;;;;;;;;;;;;;2106732;28;44669;-68
2021/09/05 01:58:19;;;;;;;;;;;;;;;;;;2105951;28;45597;-67
2021/09/05 01:59:21;;;;;;;;;;;;;;;;;;2097927;28;46541;-68
2021/09/05 02:00:22;;;;;;;;;;;;;;;;;;2089625;28;43946;-68
2021/09/05 02:01:24;;;;;;;;;;;;;;;;;;2098053;28;45690;-68
2021/09/05 02:02:26;;;;;;;;;;;;;;;;;;2106233;28;45119;-68
2021/09/05 02:03:27;;;;;;;;;;;;;;;;;;2106446;28;46876;-68
2021/09/05 02:04:29;;;;;;;;;;;;;;;;;;2098137;28;46807;-67
2021/09/05 02:05:31;;;;;;;;;;;;;;;;;;2098212;28;44211;-68
2021/09/05 02:06:33;;;;;;;;;;;;;;;;;;2098480;28;44416;-67
2021/09/05 02:07:34;;;;;;;;;;;;;;;;;;2097383;28;46522;-69
2021/09/05 02:08:36;;;;;;;;;;;;;;;;;;2098245;28;44075;-68
2021/09/05 02:09:37;;;;;;;;;;;;;;;;;;2098804;28;45426;-70
2021/09/05 02:10:39;;;;;;;;;;;;;;;;;;2098074;28;43626;-69
2021/09/05 02:11:40;;;;;;;;;;;;;;;;;;2098234;28;45308;-69
2021/09/05 02:12:42;;;;;;;;;;;;;;;;;;2098007;28;45073;-69
2021/09/05 02:13:44;;;;;;;;;;;;;;;;;;2098095;28;47152;-69
2021/09/05 02:14:45;;;;;;;;;;;;;;;;;;2112434;28;46871;-69
2021/09/05 02:15:47;;;;;;;;;;;;;;;;;;2114760;28;45806;-69
2021/09/05 02:16:48;;;;;;;;;;;;;;;;;;2114858;28;45006;-69
2021/09/05 02:17:50;;;;;;;;;;;;;;;;;;2118904;28;44483;-69
2021/09/05 02:18:51;;;;;;;;;;;;;;;;;;2110900;28;44334;-68
2021/09/05 02:19:52;;;;;;;;;;;;;;;;;;2106779;28;47090;-68
2021/09/05 02:20:55;;;;;;;;;;;;;;;;;;2114104;28;45888;-68
2021/09/05 02:21:56;;;;;;;;;;;;;;;;;;2114346;28;46061;-67
2021/09/05 02:22:57;;;;;;;;;;;;;;;;;;2106860;28;47482;-68
2021/09/05 02:23:59;;;;;;;;;;;;;;;;;;2106974;28;46803;-67
2021/09/05 02:25:00;;;;;;;;;;;;;;;;;;2106638;28;44213;-68
2021/09/05 02:26:02;;;;;;;;;;;;;;;;;;2106490;28;46612;-67
2021/09/05 02:27:03;;;;;;;;;;;;;;;;;;2114513;28;46253;-67
2021/09/05 02:28:05;;;;;;;;;;;;;;;;;;2105380;28;47208;-66
2021/09/05 02:29:06;;;;;;;;;;;;;;;;;;2106054;28;47208;-66
2021/09/05 02:30:09;;;;;;;;;;;;;;;;;;2106443;28;47158;-66
2021/09/05 02:31:11;;;;;;;;;;;;;;;;;;2105822;28;46969;-66
2021/09/05 02:32:12;;;;;;;;;;;;;;;;;;2106680;28;46134;-67
2021/09/05 02:33:14;;;;;;;;;;;;;;;;;;2114528;28;47047;-66
2021/09/05 02:34:15;;;;;;;;;;;;;;;;;;2114776;28;47366;-68
2021/09/05 02:35:17;;;;;;;;;;;;;;;;;;2106285;28;43989;-68
2021/09/05 02:36:19;;;;;;;;;;;;;;;;;;2101834;28;46719;-68
2021/09/05 02:37:20;;;;;;;;;;;;;;;;;;2097486;28;46581;-68
2021/09/05 02:38:22;;;;;;;;;;;;;;;;;;2089244;28;46258;-67
2021/09/05 02:39:23;;;;;;;;;;;;;;;;;;2089827;28;42855;-68
2021/09/05 02:40:24;;;;;;;;;;;;;;;;;;2089686;28;45677;-67
2021/09/05 02:41:26;;;;;;;;;;;;;;;;;;2093755;28;46431;-67
2021/09/05 02:42:28;;;;;;;;;;;;;;;;;;2105912;28;46527;-68
2021/09/05 02:43:29;;;;;;;;;;;;;;;;;;2113924;28;45565;-67
2021/09/05 02:44:30;;;;;;;;;;;;;;;;;;2114617;28;45392;-68
2021/09/05 02:45:32;;;;;;;;;;;;;;;;;;2106708;28;45063;-67
2021/09/05 02:46:33;;;;;;;;;;;;;;;;;;2114734;28;46895;-69
2021/09/05 02:47:34;;;;;;;;;;;;;;;;;;2114340;28;43857;-68
2021/09/05 02:48:36;;;;;;;;;;;;;;;;;;2106728;28;45446;-68
2021/09/05 02:49:37;;;;;;;;;;;;;;;;;;2114459;28;44865;-68
2021/09/05 02:50:39;;;;;;;;;;;;;;;;;;2106231;28;46651;-68
2021/09/05 02:51:42;;;;;;;;;;;;;;;;;;2105698;28;45187;-68
2021/09/05 02:52:44;;;;;;;;;;;;;;;;;;2106908;28;43951;-69
2021/09/05 02:53:45;;;;;;;;;;;;;;;;;;2106266;28;44034;-69
2021/09/05 02:54:46;;;;;;;;;;;;;;;;;;2106178;28;46629;-68
2021/09/05 02:55:48;;;;;;;;;;;;;;;;;;2106446;28;43206;-68
2021/09/05 02:56:49;;;;;;;;;;;;;;;;;;2106216;28;45840;-68
2021/09/05 02:57:51;;;;;;;;;;;;;;;;;;2105649;28;46770;-68
2021/09/05 02:58:52;;;;;;;;;;;;;;;;;;2106094;28;46452;-68
2021/09/05 02:59:53;;;;;;;;;;;;;;;;;;2105822;28;46491;-69
2021/09/05 03:00:55;;;;;;;;;;;;;;;;;;2106180;28;45742;-68
2021/09/05 03:01:58;;;;;;;;;;;;;;;;;;2105828;28;43946;-69
2021/09/05 03:02:59;;;;;;;;;;;;;;;;;;2114202;28;45395;-69
2021/09/05 03:04:01;;;;;;;;;;;;;;;;;;2106110;28;45043;-68
2021/09/05 03:05:02;;;;;;;;;;;;;;;;;;2106016;28;45691;-69
2021/09/05 03:06:04;;;;;;;;;;;;;;;;;;2105944;28;46786;-69
2021/09/05 03:07:06;;;;;;;;;;;;;;;;;;2106326;28;45414;-68
2021/09/05 03:08:07;;;;;;;;;;;;;;;;;;2105143;28;43909;-68
2021/09/05 03:09:08;;;;;;;;;;;;;;;;;;2106105;28;45304;-68
2021/09/05 03:10:10;;;;;;;;;;;;;;;;;;2106125;28;46679;-68
2021/09/05 03:11:11;;;;;;;;;;;;;;;;;;2105820;28;45629;-69
2021/09/05 03:12:13;;;;;;;;;;;;;;;;;;2105793;28;44162;-69
2021/09/05 03:13:14;;;;;;;;;;;;;;;;;;2106113;28;45333;-70
2021/09/05 03:14:16;;;;;;;;;;;;;;;;;;2106407;28;46308;-69
2021/09/05 03:15:17;;;;;;;;;;;;;;;;;;2106170;28;46367;-69
2021/09/05 03:16:18;;;;;;;;;;;;;;;;;;2106126;28;44143;-69
2021/09/05 03:17:20;;;;;;;;;;;;;;;;;;2098126;28;45710;-69
2021/09/05 03:18:21;;;;;;;;;;;;;;;;;;2105845;28;47023;-69
2021/09/05 03:19:23;;;;;;;;;;;;;;;;;;2105933;28;46914;-69
2021/09/05 03:20:24;;;;;;;;;;;;;;;;;;2106083;28;46951;-69
2021/09/05 03:21:25;;;;;;;;;;;;;;;;;;2105710;28;46846;-68
2021/09/05 03:22:27;;;;;;;;;;;;;;;;;;2106083;28;43222;-68
2021/09/05 03:23:28;;;;;;;;;;;;;;;;;;2105753;28;45930;-69
2021/09/05 03:24:30;;;;;;;;;;;;;;;;;;2106169;28;45787;-68
2021/09/05 03:25:31;;;;;;;;;;;;;;;;;;2105670;28;45769;-68
2021/09/05 03:26:33;;;;;;;;;;;;;;;;;;2097771;28;45759;-69
2021/09/05 03:27:35;;;;;;;;;;;;;;;;;;2105326;28;44506;-68
2021/09/05 03:28:36;;;;;;;;;;;;;;;;;;2106543;28;45872;-69
2021/09/05 03:29:37;;;;;;;;;;;;;;;;;;2105824;28;45929;-69
2021/09/05 03:30:39;;;;;;;;;;;;;;;;;;2105911;28;46072;-69
2021/09/05 03:31:40;;;;;;;;;;;;;;;;;;2106170;28;45113;-68
2021/09/05 03:32:42;;;;;;;;;;;;;;;;;;2106572;28;47021;-68
2021/09/05 03:33:43;;;;;;;;;;;;;;;;;;2106230;28;46026;-68
2021/09/05 03:34:45;;;;;;;;;;;;;;;;;;2105809;28;47066;-68
2021/09/05 03:35:46;;;;;;;;;;;;;;;;;;2105895;28;46256;-69
2021/09/05 03:36:48;;;;;;;;;;;;;;;;;;2105850;28;47001;-68
2021/09/05 03:37:49;;;;;;;;;;;;;;;;;;2105578;28;44285;-68
2021/09/05 03:38:50;;;;;;;;;;;;;;;;;;2106512;28;44707;-68
2021/09/05 03:39:52;;;;;;;;;;;;;;;;;;2114608;28;47181;-68
2021/09/05 03:40:53;;;;;;;;;;;;;;;;;;2105797;28;44045;-69
2021/09/05 03:41:55;;;;;;;;;;;;;;;;;;2104727;28;46311;-69
2021/09/05 03:42:56;;;;;;;;;;;;;;;;;;2114326;28;45216;-69
2021/09/05 03:43:57;;;;;;;;;;;;;;;;;;2105597;28;45257;-69
2021/09/05 03:44:59;;;;;;;;;;;;;;;;;;2105880;28;46292;-69
2021/09/05 03:46:01;;;;;;;;;;;;;;;;;;2105785;28;45799;-68
2021/09/05 03:47:02;;;;;;;;;;;;;;;;;;2105846;28;44783;-69
2021/09/05 03:48:04;;;;;;;;;;;;;;;;;;2105455;28;45171;-69
2021/09/05 03:49:05;;;;;;;;;;;;;;;;;;2105708;28;46371;-69
2021/09/05 03:50:07;;;;;;;;;;;;;;;;;;2106381;28;46426;-68
2021/09/05 03:51:08;;;;;;;;;;;;;;;;;;2106288;28;46650;-68
2021/09/05 03:52:10;;;;;;;;;;;;;;;;;;2106309;28;43768;-69
2021/09/05 03:53:11;;;;;;;;;;;;;;;;;;2105337;28;46703;-69
2021/09/05 03:54:12;;;;;;;;;;;;;;;;;;2096967;28;46704;-69
2021/09/05 03:55:14;;;;;;;;;;;;;;;;;;2104971;28;46364;-69
2021/09/05 03:56:15;;;;;;;;;;;;;;;;;;2114098;28;46682;-69
2021/09/05 03:57:17;;;;;;;;;;;;;;;;;;2114102;28;45167;-69
2021/09/05 03:58:18;;;;;;;;;;;;;;;;;;2105535;28;45298;-69
2021/09/05 03:59:19;;;;;;;;;;;;;;;;;;2105694;28;45181;-69
2021/09/05 04:00:21;;;;;;;;;;;;;;;;;;2105657;28;45197;-69
2021/09/05 04:01:22;;;;;;;;;;;;;;;;;;2106035;28;44094;-69
2021/09/05 04:02:24;;;;;;;;;;;;;;;;;;2105846;28;45621;-69
2021/09/05 04:03:25;;;;;;;;;;;;;;;;;;2105709;28;46988;-69
2021/09/05 04:04:27;;;;;;;;;;;;;;;;;;2105736;28;44408;-69
2021/09/05 04:05:28;;;;;;;;;;;;;;;;;;2114434;28;44112;-69
2021/09/05 04:06:30;;;;;;;;;;;;;;;;;;2106119;28;45682;-68
2021/09/05 04:07:32;;;;;;;;;;;;;;;;;;2105643;28;45415;-68
2021/09/05 04:08:42;;;;;;;;;;;;;;;;;;2105348;28;46910;-68
2021/09/05 04:11:04;;;;;;;;;;;;;;;;;;2105681;28;44571;-68
2021/09/05 04:12:05;;;;;;;;;;;;;;;;;;2106200;28;45751;-68
2021/09/05 04:13:08;;;;;;;;;;;;;;;;;;2106016;28;45430;-68
2021/09/05 04:14:09;;;;;;;;;;;;;;;;;;2105332;28;45398;-68
2021/09/05 04:15:11;;;;;;;;;;;;;;;;;;2105474;28;46684;-68
2021/09/05 04:16:12;;;;;;;;;;;;;;;;;;2106390;28;44135;-68
2021/09/05 04:17:14;;;;;;;;;;;;;;;;;;2106117;28;45384;-68
2021/09/05 04:18:15;;;;;;;;;;;;;;;;;;2106236;28;44161;-68
2021/09/05 04:19:16;;;;;;;;;;;;;;;;;;2113707;28;45422;-69
2021/09/05 04:20:18;;;;;;;;;;;;;;;;;;2105716;28;46545;-68
2021/09/05 04:21:19;;;;;;;;;;;;;;;;;;2104639;28;46649;-68
2021/09/05 04:22:21;;;;;;;;;;;;;;;;;;2105744;28;46504;-68
2021/09/05 04:23:22;;;;;;;;;;;;;;;;;;2106027;28;45588;-68
2021/09/05 04:24:24;;;;;;;;;;;;;;;;;;2105660;28;46991;-68
2021/09/05 04:25:25;;;;;;;;;;;;;;;;;;2105533;28;45834;-69
2021/09/05 04:26:26;;;;;;;;;;;;;;;;;;2105623;28;45723;-69
2021/09/05 04:27:28;;;;;;;;;;;;;;;;;;2105459;28;46089;-69
2021/09/05 04:28:29;;;;;;;;;;;;;;;;;;2105275;28;46522;-69
2021/09/05 04:29:31;;;;;;;;;;;;;;;;;;2105099;28;43063;-69
2021/09/05 04:30:32;;;;;;;;;;;;;;;;;;2105677;28;46961;-69
2021/09/05 04:31:34;;;;;;;;;;;;;;;;;;2105252;28;45740;-69
2021/09/05 04:32:36;;;;;;;;;;;;;;;;;;2105648;28;44199;-69
2021/09/05 04:33:38;;;;;;;;;;;;;;;;;;2105327;28;46913;-69
2021/09/05 04:34:39;;;;;;;;;;;;;;;;;;2105658;28;45906;-69
2021/09/05 04:35:41;;;;;;;;;;;;;;;;;;2105436;28;46138;-69
2021/09/05 04:36:42;;;;;;;;;;;;;;;;;;2098064;28;43778;-68
2021/09/05 04:37:43;;;;;;;;;;;;;;;;;;2096913;28;46865;-69
2021/09/05 04:38:45;;;;;;;;;;;;;;;;;;2105514;28;45910;-69
2021/09/05 04:39:46;;;;;;;;;;;;;;;;;;2096937;28;46908;-68
2021/09/05 04:40:48;;;;;;;;;;;;;;;;;;2097037;28;46960;-68
2021/09/05 04:41:49;;;;;;;;;;;;;;;;;;2096999;28;44835;-68
2021/09/05 04:42:50;;;;;;;;;;;;;;;;;;2105639;28;43905;-69
2021/09/05 04:43:52;;;;;;;;;;;;;;;;;;2096878;28;47049;-70
2021/09/05 04:44:53;;;;;;;;;;;;;;;;;;2097095;28;46973;-69
2021/09/05 04:45:56;;;;;;;;;;;;;;;;;;2097320;28;47274;-69
2021/09/05 04:46:57;;;;;;;;;;;;;;;;;;2088973;28;46645;-69
2021/09/05 04:47:59;;;;;;;;;;;;;;;;;;2096933;28;45297;-68
2021/09/05 04:49:00;;;;;;;;;;;;;;;;;;2105131;28;46608;-69
2021/09/05 04:50:02;;;;;;;;;;;;;;;;;;2097000;28;46411;-69
2021/09/05 04:51:04;;;;;;;;;;;;;;;;;;2095935;28;43919;-70
2021/09/05 04:52:06;;;;;;;;;;;;;;;;;;2088725;28;45488;-69
2021/09/05 04:53:07;;;;;;;;;;;;;;;;;;2088904;28;45316;-70
2021/09/05 04:54:09;;;;;;;;;;;;;;;;;;2097034;28;46376;-70
2021/09/05 04:55:10;;;;;;;;;;;;;;;;;;2105398;28;44043;-70
2021/09/05 04:56:14;;;;;;;;;;;;;;;;;;2096839;28;45270;-69
2021/09/05 04:57:16;;;;;;;;;;;;;;;;;;2096803;28;44000;-70
2021/09/05 04:58:17;;;;;;;;;;;;;;;;;;2097438;28;43938;-70
2021/09/05 04:59:19;;;;;;;;;;;;;;;;;;2105044;28;45301;-69
2021/09/05 05:00:20;;;;;;;;;;;;;;;;;;2105374;28;46385;-70
2021/09/05 05:01:22;;;;;;;;;;;;;;;;;;2104859;28;46457;-70
2021/09/05 05:02:23;;;;;;;;;;;;;;;;;;2097032;28;45593;-70
2021/09/05 05:03:25;;;;;;;;;;;;;;;;;;2088570;28;46513;-70
2021/09/05 05:04:44;;;;;;;;;;;;;;;;;;2096949;28;44355;-70
2021/09/05 05:05:45;;;;;;;;;;;;;;;;;;2105419;28;45239;-71
2021/09/05 05:06:47;;;;;;;;;;;;;;;;;;2109137;28;46341;-71
2021/09/05 05:07:48;;;;;;;;;;;;;;;;;;2115529;28;45300;-71
2021/09/05 05:08:50;;;;;;;;;;;;;;;;;;2114993;28;46807;-69
2021/09/05 05:09:54;;;;;;;;;;;;;;;;;;2115174;28;46510;-70
2021/09/05 05:10:55;;;;;;;;;;;;;;;;;;2114727;28;46511;-70
2021/09/05 05:11:56;;;;;;;;;;;;;;;;;;2106641;28;46458;-70
2021/09/05 05:12:58;;;;;;;;;;;;;;;;;;2107047;28;43983;-69
2021/09/05 05:13:59;;;;;;;;;;;;;;;;;;2114533;27;43975;-69
2021/09/05 05:15:01;;;;;;;;;;;;;;;;;;2107429;28;46492;-69
2021/09/05 05:16:03;;;;;;;;;;;;;;;;;;2106720;28;45082;-69
2021/09/05 05:17:04;;;;;;;;;;;;;;;;;;2106883;28;44063;-69
2021/09/05 05:18:06;;;;;;;;;;;;;;;;;;2106704;28;45076;-69
2021/09/05 05:19:07;;;;;;;;;;;;;;;;;;2106809;28;46953;-70
2021/09/05 05:20:11;;;;;;;;;;;;;;;;;;2106497;28;45317;-69
2021/09/05 05:21:13;;;;;;;;;;;;;;;;;;2107303;28;45377;-69
2021/09/05 05:22:14;;;;;;;;;;;;;;;;;;2106679;28;44962;-69
2021/09/05 05:23:16;;;;;;;;;;;;;;;;;;2106838;28;45594;-69
2021/09/05 05:24:17;;;;;;;;;;;;;;;;;;2106863;28;45295;-69
2021/09/05 05:25:18;;;;;;;;;;;;;;;;;;2106686;28;46627;-69
2021/09/05 05:26:20;;;;;;;;;;;;;;;;;;2106715;28;45442;-69
2021/09/05 05:27:21;;;;;;;;;;;;;;;;;;2106778;28;46609;-69
2021/09/05 05:28:23;;;;;;;;;;;;;;;;;;2106455;28;46481;-69
2021/09/05 05:29:24;;;;;;;;;;;;;;;;;;2106481;28;46636;-69
2021/09/05 05:30:26;;;;;;;;;;;;;;;;;;2115018;28;44403;-69
2021/09/05 05:31:27;;;;;;;;;;;;;;;;;;2106718;28;45229;-69
2021/09/05 05:32:29;;;;;;;;;;;;;;;;;;2106546;28;46058;-69
2021/09/05 05:33:30;;;;;;;;;;;;;;;;;;2106788;28;46079;-70
2021/09/05 05:34:32;;;;;;;;;;;;;;;;;;2106971;28;44387;-69
2021/09/05 05:35:33;;;;;;;;;;;;;;;;;;2106715;28;45883;-69
2021/09/05 05:36:35;;;;;;;;;;;;;;;;;;2108338;28;45502;-69
2021/09/05 05:37:37;;;;;;;;;;;;;;;;;;2117170;28;47320;-70
2021/09/05 05:38:43;;;;;;;;;;;;;;;;;;2107657;28;44651;-69
2021/09/05 05:39:44;;;;;;;;;;;;;;;;;;2106911;28;45995;-69
2021/09/05 05:40:45;;;;;;;;;;;;;;;;;;2106415;28;45808;-68
2021/09/05 05:41:47;;;;;;;;;;;;;;;;;;2105947;28;45844;-68
2021/09/05 05:42:49;;;;;;;;;;;;;;;;;;2115237;28;44006;-68
2021/09/05 05:43:50;;;;;;;;;;;;;;;;;;2115056;28;44777;-68
2021/09/05 05:44:51;;;;;;;;;;;;;;;;;;2106514;28;45771;-68
2021/09/05 05:45:53;;;;;;;;;;;;;;;;;;2106645;28;47074;-69
2021/09/05 05:46:54;;;;;;;;;;;;;;;;;;2106724;28;44915;-68
2021/09/05 05:47:56;;;;;;;;;;;;;;;;;;2106601;28;45951;-68
2021/09/05 05:48:57;;;;;;;;;;;;;;;;;;2106442;28;45913;-68
2021/09/05 05:49:59;;;;;;;;;;;;;;;;;;2106576;28;45354;-69
2021/09/05 05:51:00;;;;;;;;;;;;;;;;;;2105971;28;47354;-68
2021/09/05 05:52:02;;;;;;;;;;;;;;;;;;2106700;28;45869;-68
2021/09/05 05:53:03;;;;;;;;;;;;;;;;;;2106829;28;46339;-69
2021/09/05 05:54:05;;;;;;;;;;;;;;;;;;2107187;28;46209;-68
2021/09/05 05:55:07;;;;;;;;;;;;;;;;;;2106965;28;44066;-69
2021/09/05 05:56:08;;;;;;;;;;;;;;;;;;2106628;28;46487;-69
2021/09/05 05:57:10;;;;;;;;;;;;;;;;;;2114743;28;45268;-69
2021/09/05 05:58:11;;;;;;;;;;;;;;;;;;2114596;28;46355;-69
2021/09/05 05:59:13;;;;;;;;;;;;;;;;;;2107039;28;45082;-69
2021/09/05 06:00:14;;;;;;;;;;;;;;;;;;2106579;28;45304;-68
2021/09/05 06:01:16;;;;;;;;;;;;;;;;;;2106212;28;46466;-68
2021/09/05 06:02:18;;;;;;;;;;;;;;;;;;2106491;28;45116;-69
2021/09/05 06:03:21;;;;;;;;;;;;;;;;;;2107021;28;44587;-69
2021/09/05 06:04:22;;;;;;;;;;;;;;;;;;2115038;28;46308;-68
2021/09/05 06:05:24;;;;;;;;;;;;;;;;;;2106327;28;46353;-69
2021/09/05 06:06:27;;;;;;;;;;;;;;;;;;2106552;28;42042;-69
2021/09/05 06:07:29;;;;;;;;;;;;;;;;;;2097772;28;46602;-68
2021/09/05 06:08:30;;;;;;;;;;;;;;;;;;2098126;28;45709;-68
2021/09/05 06:09:32;;;;;;;;;;;;;;;;;;2097769;28;45117;-68
2021/09/05 06:10:33;;;;;;;;;;;;;;;;;;2098100;28;46502;-68
2021/09/05 06:11:34;;;;;;;;;;;;;;;;;;2097747;28;45262;-68
2021/09/05 06:12:36;;;;;;;;;;;;;;;;;;2106512;28;46691;-68
2021/09/05 06:13:37;;;;;;;;;;;;;;;;;;2107348;28;43899;-70
2021/09/05 06:14:39;;;;;;;;;;;;;;;;;;2106729;28;47054;-69
2021/09/05 06:15:43;;;;;;;;;;;;;;;;;;2106300;28;45597;-69
2021/09/05 06:16:45;;;;;;;;;;;;;;;;;;2106571;28;46742;-69
2021/09/05 06:17:46;;;;;;;;;;;;;;;;;;2105688;28;42911;-69
2021/09/05 06:18:48;;;;;;;;;;;;;;;;;;2107162;28;46570;-69
2021/09/05 06:19:49;;;;;;;;;;;;;;;;;;2112558;28;46414;-69
2021/09/05 06:20:51;;;;;;;;;;;;;;;;;;2114914;28;46403;-69
2021/09/05 06:21:52;;;;;;;;;;;;;;;;;;2106044;28;45361;-70
2021/09/05 06:22:53;;;;;;;;;;;;;;;;;;2106445;28;46545;-68
2021/09/05 06:23:55;;;;;;;;;;;;;;;;;;2106102;28;46536;-68
2021/09/05 06:24:56;;;;;;;;;;;;;;;;;;2106166;28;45662;-68
2021/09/05 06:25:58;;;;;;;;;;;;;;;;;;2106004;28;46542;-68
2021/09/05 06:26:59;;;;;;;;;;;;;;;;;;2105694;28;46443;-69
2021/09/05 06:28:01;;;;;;;;;;;;;;;;;;2106270;28;44005;-68
2021/09/05 06:29:02;;;;;;;;;;;;;;;;;;2107081;28;45273;-68
2021/09/05 06:30:04;;;;;;;;;;;;;;;;;;2106982;28;45450;-68
2021/09/05 06:31:06;;;;;;;;;;;;;;;;;;2106442;28;43805;-68
2021/09/05 06:32:07;;;;;;;;;;;;;;;;;;2105418;28;45329;-68
2021/09/05 06:33:09;;;;;;;;;;;;;;;;;;2106295;28;43659;-68
2021/09/05 06:34:10;;;;;;;;;;;;;;;;;;2106271;28;45515;-68
2021/09/05 06:35:12;;;;;;;;;;;;;;;;;;2098329;28;48593;-68
2021/09/05 06:36:14;;;;;;;;;;;;;;;;;;2098200;28;44610;-68
2021/09/05 06:37:15;;;;;;;;;;;;;;;;;;2106276;28;44743;-68
2021/09/05 06:38:17;;;;;;;;;;;;;;;;;;2114034;27;44617;-68
2021/09/05 06:39:18;;;;;;;;;;;;;;;;;;2106741;28;47156;-68
2021/09/05 06:40:19;;;;;;;;;;;;;;;;;;2106544;28;44144;-68
2021/09/05 06:41:21;;;;;;;;;;;;;;;;;;2105583;28;45957;-68
2021/09/05 06:42:22;;;;;;;;;;;;;;;;;;2114693;28;46976;-68
2021/09/05 06:43:24;;;;;;;;;;;;;;;;;;2106681;28;44850;-68
2021/09/05 06:44:25;;;;;;;;;;;;;;;;;;2114758;28;45861;-68
2021/09/05 06:45:27;;;;;;;;;;;;;;;;;;2114212;28;47055;-68
2021/09/05 06:46:28;;;;;;;;;;;;;;;;;;2106544;28;44687;-68
2021/09/05 06:47:30;;;;;;;;;;;;;;;;;;2115676;28;46142;-68
2021/09/05 06:48:31;;;;;;;;;;;;;;;;;;2116741;28;45904;-68
2021/09/05 06:49:33;;;;;;;;;;;;;;;;;;2108317;28;45845;-68
2021/09/05 06:50:34;;;;;;;;;;;;;;;;;;2116433;28;46258;-69
2021/09/05 06:51:36;;;;;;;;;;;;;;;;;;2115618;28;45977;-68
2021/09/05 06:52:37;;;;;;;;;;;;;;;;;;2116897;28;47145;-68
2021/09/05 06:53:39;;;;;;;;;;;;;;;;;;2116432;28;47078;-68
2021/09/05 06:54:41;;;;;;;;;;;;;;;;;;2108067;28;46266;-68
2021/09/05 06:55:42;;;;;;;;;;;;;;;;;;2108148;28;45785;-71
2021/09/05 06:56:45;;;;;;;;;;;;;;;;;;2100531;28;45975;-69
2021/09/05 06:57:48;;;;;;;;;;;;;;;;;;2099611;28;46973;-69
2021/09/05 06:58:49;;;;;;;;;;;;;;;;;;2099944;28;45182;-69
2021/09/05 06:59:51;;;;;;;;;;;;;;;;;;2096460;28;46469;-69
2021/09/05 07:00:52;;;;;;;;;;;;;;;;;;2108327;28;45166;-69
2021/09/05 07:01:54;;;;;;;;;;;;;;;;;;2100227;28;46348;-69
2021/09/05 07:02:56;;;;;;;;;;;;;;;;;;2100857;28;45214;-69